Terminal Aerodrome Forecast
Issued by NWS

Home | Current Version | Previous Version | Text Only | Print | Product List | Glossary On
Versions: 1 2 3 4 5 6 7 8 9 10 11 12 13 14
000
FTUS45 KABQ 031122
TAFFMN
TAF
KFMN 031122Z 0312/0412 VRB04KT P6SM SKC
      TEMPO 0312/0315 5SM BR BKN007
     FM032000 28013KT P6SM FEW080
     FM040100 27008KT P6SM SKC
     FM040800 08006KT P6SM SKC=

USA.gov is the U.S. government's official web portal to all federal, state and local government web resources and services.